Time;durP1;ratioP1;P1;durP2;ratioP2;P2;SDS_P1;SDS_P2;PMS_P1;PMS_P2;Temp;Humidity;BMP_temperature;BMP_pressure;BME280_temperature;BME280_humidity;BME280_pressure;Samples;Min_cycle;Max_cycle;Signal;HPM_P1;HPM_P2
2022/01/14 00:00:50;;;;;;;22.43;4.40;;;;;;;5.47;100.00;102670.91;5051159;28;20028;-86
2022/01/14 00:03:15;;;;;;;18.60;4.03;;;;;;;5.48;100.00;102663.84;5055305;28;20393;-85
2022/01/14 00:05:40;;;;;;;16.47;3.27;;;;;;;5.48;100.00;102659.38;5053094;28;20039;-87
2022/01/14 00:08:06;;;;;;;11.77;3.47;;;;;;;5.36;100.00;102648.56;5053576;28;20442;-86
2022/01/14 00:10:32;;;;;;;17.33;3.73;;;;;;;5.40;100.00;102650.13;5052362;28;20048;-85
2022/01/14 00:13:07;;;;;;;;;;;;;;;5.48;100.00;102654.09;5053043;28;20021;-84
2022/01/14 00:15:34;;;;;;;16.42;3.10;;;;;;;5.42;100.00;102645.59;5058243;28;20365;-86
2022/01/14 00:18:01;;;;;;;10.60;3.45;;;;;;;5.39;100.00;102659.03;5052710;28;20033;-86
2022/01/14 00:20:26;;;;;;;16.15;3.45;;;;;;;5.45;100.00;102658.69;5041105;28;20025;-85
2022/01/14 00:22:52;;;;;;;29.38;5.10;;;;;;;5.40;100.00;102663.38;5066946;28;20098;-86
2022/01/14 00:33:27;;;;;;;28.92;4.82;;;;;;;5.39;100.00;102659.03;5077413;28;19912;-85
2022/01/14 00:35:53;;;;;;;13.17;3.40;;;;;;;5.41;100.00;102665.97;5066437;28;20029;-85
2022/01/14 00:38:18;;;;;;;16.70;6.03;;;;;;;5.36;100.00;102649.47;5043314;28;20033;-86
2022/01/14 00:40:44;;;;;;;18.43;3.43;;;;;;;5.33;100.00;102646.94;5061309;28;20117;-85
2022/01/14 00:43:09;;;;;;;26.52;5.20;;;;;;;5.28;100.00;102652.50;5052313;28;20493;-86
2022/01/14 00:45:35;;;;;;;26.00;5.82;;;;;;;5.28;100.00;102651.63;5051754;28;20039;-86
2022/01/14 00:48:02;;;;;;;27.63;5.28;;;;;;;5.32;100.00;102660.28;5058490;28;20036;-86
2022/01/14 00:50:28;;;;;;;23.90;4.88;;;;;;;5.23;100.00;102649.25;5068530;28;20048;-86
2022/01/14 00:52:53;;;;;;;31.90;6.15;;;;;;;5.29;100.00;102663.94;5074741;28;20054;-86
2022/01/14 00:55:27;;;;;;;17.93;3.33;;;;;;;5.33;100.00;102654.91;5062693;28;20481;-84
2022/01/14 01:00:32;;;;;;;20.77;6.70;;;;;;;5.25;100.00;102662.41;5077203;28;20024;-86
2022/01/14 01:02:58;;;;;;;19.13;5.03;;;;;;;5.28;100.00;102667.53;5051966;28;20032;-85
2022/01/14 01:05:23;;;;;;;19.77;3.20;;;;;;;5.31;100.00;102667.34;5063375;28;20116;-86
2022/01/14 01:08:11;;;;;;;27.77;4.82;;;;;;;5.38;100.00;102671.41;5066303;28;20032;-83
2022/01/14 01:10:46;;;;;;;24.40;4.53;;;;;;;5.30;100.00;102655.06;5075060;28;20550;-86
2022/01/14 01:13:21;;;;;;;13.43;3.65;;;;;;;5.27;100.00;102650.78;5068579;28;20032;-85
2022/01/14 01:15:47;;;;;;;28.73;5.00;;;;;;;5.34;100.00;102667.22;5055744;28;20124;-86
2022/01/14 01:18:12;;;;;;;16.10;4.97;;;;;;;5.30;100.00;102660.38;5058229;28;20543;-86
2022/01/14 01:20:38;;;;;;;27.53;4.80;;;;;;;5.27;100.00;102658.75;5049821;28;20056;-85
2022/01/14 01:23:04;;;;;;;19.03;3.90;;;;;;;5.28;100.00;102656.94;5065784;28;20032;-86
2022/01/14 01:25:50;;;;;;;19.23;5.57;;;;;;;5.26;100.00;102658.81;5060024;28;20059;-84
2022/01/14 01:28:16;;;;;;;13.23;4.22;;;;;;;5.29;100.00;102666.59;5065491;28;20045;-85
2022/01/14 01:31:03;;;;;;;23.95;4.22;;;;;;;5.28;100.00;102657.78;5071380;28;20529;-86
2022/01/14 01:33:28;;;;;;;19.08;4.18;;;;;;;5.29;100.00;102661.28;5066037;28;20088;-86
2022/01/14 01:35:54;;;;;;;21.65;5.22;;;;;;;5.31;100.00;102670.00;5058283;28;20131;-86
2022/01/14 01:38:19;;;;;;;23.88;6.05;;;;;;;5.22;100.00;102657.25;5068691;28;20698;-85
2022/01/14 01:40:46;;;;;;;22.73;5.67;;;;;;;5.30;100.00;102655.06;5083565;28;20033;-85
2022/01/14 01:43:13;;;;;;;25.65;4.20;;;;;;;5.29;100.00;102653.34;5066793;28;20123;-85
2022/01/14 01:45:38;;;;;;;20.23;5.20;;;;;;;5.31;100.00;102642.69;5057492;28;20040;-86
2022/01/14 01:48:04;;;;;;;27.55;4.65;;;;;;;5.32;100.00;102636.47;5067824;28;20031;-86
2022/01/14 01:50:31;;;;;;;17.17;5.35;;;;;;;5.29;100.00;102630.38;5065603;28;20045;-86
2022/01/14 01:52:56;;;;;;;22.98;5.53;;;;;;;5.27;100.00;102623.47;5071902;28;20076;-86
2022/01/14 01:55:23;;;;;;;25.57;4.83;;;;;;;5.31;100.00;102629.44;5055682;28;20044;-87
2022/01/14 01:57:49;;;;;;;16.25;4.57;;;;;;;5.34;100.00;102623.97;5067619;28;20032;-86
2022/01/14 02:00:18;;;;;;;16.45;4.13;;;;;;;5.36;100.00;102633.56;5065045;28;20064;-85
2022/01/14 02:02:46;;;;;;;25.33;4.85;;;;;;;5.29;100.00;102613.63;5066674;28;20039;-86
2022/01/14 02:05:13;;;;;;;14.77;4.35;;;;;;;5.36;100.00;102616.78;5055409;28;20024;-86
2022/01/14 02:07:39;;;;;;;14.68;3.33;;;;;;;5.24;100.00;102610.38;5065605;28;20032;-86
2022/01/14 02:10:05;;;;;;;22.13;4.55;;;;;;;5.23;100.00;102616.63;5058631;28;20143;-86
2022/01/14 02:12:37;;;;;;;;;;;;;;;5.29;100.00;102609.19;5055214;28;20037;-85
2022/01/14 02:15:11;;;;;;;16.20;4.32;;;;;;;5.23;100.00;102595.44;5082802;28;19912;-87
2022/01/14 02:18:02;;;;;;;17.33;4.03;;;;;;;5.26;100.00;102603.19;5056771;28;20037;-85
2022/01/14 02:23:07;;;;;;;16.90;4.40;;;;;;;5.14;100.00;102580.88;5072496;28;20082;-86
2022/01/14 02:25:33;;;;;;;19.23;3.83;;;;;;;5.22;100.00;102588.41;5054116;28;20056;-86
2022/01/14 02:28:07;;;;;;;21.05;3.47;;;;;;;5.26;100.00;102589.94;5043145;28;20053;-85
2022/01/14 02:30:40;;;;;;;24.92;4.53;;;;;;;5.27;100.00;102573.16;5060006;28;20037;-87
2022/01/14 02:33:07;;;;;;;12.95;3.30;;;;;;;5.24;100.00;102576.81;5059301;28;20041;-85
2022/01/14 02:35:33;;;;;;;22.20;4.05;;;;;;;5.24;100.00;102566.22;5075546;28;20032;-86
2022/01/14 02:37:59;;;;;;;18.05;4.45;;;;;;;5.24;100.00;102573.28;5070586;28;20077;-84
2022/01/14 02:40:25;;;;;;;19.25;2.60;;;;;;;5.26;100.00;102563.47;5062249;28;20068;-85
2022/01/14 02:42:50;;;;;;;17.35;4.05;;;;;;;5.22;100.00;102559.28;5060547;28;20036;-87
2022/01/14 02:45:18;;;;;;;11.23;3.05;;;;;;;5.28;100.00;102561.59;5039391;28;20542;-86
2022/01/14 02:47:44;;;;;;;28.27;4.07;;;;;;;5.21;100.00;102549.63;5061289;28;20028;-85
2022/01/14 02:50:15;;;;;;;17.58;2.78;;;;;;;5.20;100.00;102532.03;5038777;28;20036;-86
2022/01/14 02:52:54;;;;;;;17.30;3.28;;;;;;;5.23;100.00;102515.97;5065428;28;20379;-84
2022/01/14 02:55:29;;;;;;;19.48;4.47;;;;;;;5.31;100.00;102513.75;5050404;28;20029;-84
2022/01/14 02:57:56;;;;;;;16.05;4.40;;;;;;;5.32;100.00;102504.03;5061627;28;20051;-86
2022/01/14 03:00:28;;;;;;;26.80;8.52;;;;;;;5.33;100.00;102495.97;5050460;28;20028;-85
2022/01/14 03:02:54;;;;;;;18.27;3.42;;;;;;;5.34;100.00;102487.13;5052089;28;20047;-86
2022/01/14 03:05:20;;;;;;;;;;;;;;;5.34;100.00;102494.19;5050612;28;20083;-85
2022/01/14 03:07:47;;;;;;;23.08;4.18;;;;;;;5.29;100.00;102475.91;5066477;28;20385;-86
2022/01/14 03:10:15;;;;;;;18.02;3.28;;;;;;;5.35;100.00;102480.00;5058041;28;20516;-87
2022/01/14 03:12:42;;;;;;;10.18;3.63;;;;;;;5.27;100.00;102465.41;5068556;28;20115;-86
2022/01/14 03:15:08;;;;;;;13.00;2.83;;;;;;;5.33;100.00;102466.00;5039156;28;20036;-86
2022/01/14 03:17:34;;;;;;;17.80;3.60;;;;;;;5.39;100.00;102469.16;5070112;28;20044;-83
2022/01/14 03:20:03;;;;;;;20.52;3.13;;;;;;;5.34;100.00;102457.09;5069862;28;20058;-86
2022/01/14 03:22:35;;;;;;;13.38;3.03;;;;;;;5.31;100.00;102460.78;5061163;28;20040;-85
2022/01/14 03:27:49;;;;;;;12.02;3.35;;;;;;;5.30;100.00;102459.09;5077120;28;20037;-85
2022/01/14 03:30:15;;;;;;;16.38;4.45;;;;;;;5.25;100.00;102453.19;5060644;28;20061;-86
2022/01/14 03:32:42;;;;;;;18.75;4.80;;;;;;;5.31;100.00;102468.72;5053511;28;20460;-86
2022/01/14 03:35:08;;;;;;;15.27;4.28;;;;;;;5.26;100.00;102470.78;5057926;28;20052;-85
2022/01/14 03:37:35;;;;;;;16.52;4.70;;;;;;;5.32;100.00;102477.53;5053769;28;20032;-83
2022/01/14 03:40:01;;;;;;;12.95;3.35;;;;;;;5.29;100.00;102473.25;5057604;28;20512;-84
2022/01/14 03:42:26;;;;;;;17.70;4.07;;;;;;;5.28;100.00;102471.56;5060074;28;20119;-85
2022/01/14 03:44:51;;;;;;;20.77;4.47;;;;;;;5.28;100.00;102476.84;5050425;28;20647;-85
2022/01/14 03:47:17;;;;;;;19.47;4.37;;;;;;;5.48;100.00;102497.78;5057355;28;20515;-85
2022/01/14 03:49:42;;;;;;;13.90;4.72;;;;;;;5.38;100.00;102493.91;5068524;28;20024;-85
2022/01/14 03:52:08;;;;;;;21.20;4.40;;;;;;;5.31;100.00;102475.81;5038378;28;20930;-86
2022/01/14 03:54:33;;;;;;;12.17;5.17;;;;;;;5.38;100.00;102499.22;5077603;28;20029;-86
2022/01/14 03:56:59;;;;;;;18.23;6.50;;;;;;;5.40;100.00;102486.75;5069092;28;20534;-83
2022/01/14 03:59:24;;;;;;;20.93;6.07;;;;;;;5.40;100.00;102500.00;5064531;28;20024;-84
2022/01/14 04:01:49;;;;;;;30.60;7.60;;;;;;;5.40;100.00;102501.78;5054205;28;20040;-86
2022/01/14 04:04:15;;;;;;;18.60;5.57;;;;;;;5.43;100.00;102512.22;5055912;28;20040;-86
2022/01/14 04:06:40;;;;;;;25.23;5.67;;;;;;;5.45;100.00;102497.94;5063832;28;20037;-85
2022/01/14 04:09:06;;;;;;;13.43;4.37;;;;;;;5.44;100.00;102503.34;5052389;28;20104;-86
2022/01/14 04:11:33;;;;;;;19.93;5.83;;;;;;;5.42;100.00;102507.88;5060714;28;20078;-85
2022/01/14 04:15:36;;;;;;;22.10;5.38;;;;;;;5.42;100.00;102511.34;5060912;28;21196;-85
2022/01/14 04:16:46;;;;;;;18.80;5.53;;;;;;;5.38;100.00;102511.63;5069282;28;20059;-86
2022/01/14 04:19:11;;;;;;;24.20;4.83;;;;;;;5.33;100.00;102495.97;5058066;28;20490;-86
2022/01/14 04:21:36;;;;;;;18.97;5.67;;;;;;;5.31;100.00;102508.44;5044284;28;20630;-85
2022/01/14 04:24:02;;;;;;;20.50;5.03;;;;;;;5.29;100.00;102500.59;5061193;28;20293;-86
2022/01/14 04:26:27;;;;;;;21.35;5.40;;;;;;;5.39;100.00;102500.09;5078933;28;20024;-86
2022/01/14 04:28:53;;;;;;;24.47;7.43;;;;;;;5.32;100.00;102494.28;5054559;28;20043;-87
2022/01/14 04:31:18;;;;;;;22.17;4.03;;;;;;;5.29;100.00;102505.03;5049389;28;20059;-86
2022/01/14 04:33:44;;;;;;;23.83;4.60;;;;;;;5.28;100.00;102503.34;5069145;28;20038;-83
2022/01/14 04:36:09;;;;;;;10.03;3.67;;;;;;;5.35;100.00;102510.00;5053124;28;20601;-86
2022/01/14 04:38:35;;;;;;;17.55;3.97;;;;;;;5.34;100.00;102510.94;5053341;28;20034;-87
2022/01/14 04:41:01;;;;;;;28.02;4.55;;;;;;;5.28;100.00;102511.28;5055717;28;20086;-87
2022/01/14 04:43:29;;;;;;;;;;;;;;;5.35;100.00;102525.88;5059970;28;20064;-86
2022/01/14 04:48:26;;;;;;;17.60;3.65;;;;;;;5.32;100.00;102518.13;5070208;28;20032;-86
2022/01/14 04:50:52;;;;;;;;;;;;;;;5.38;100.00;102499.22;5067095;28;20127;-87
2022/01/14 04:53:18;;;;;;;19.83;4.25;;;;;;;5.33;100.00;102503.06;5074059;28;19959;-86
2022/01/14 04:55:43;;;;;;;24.27;5.22;;;;;;;5.31;100.00;102513.75;5067084;28;20060;-87
2022/01/14 04:58:09;;;;;;;12.90;4.30;;;;;;;5.35;100.00;102511.78;5046641;28;20135;-84
2022/01/14 05:00:36;;;;;;;16.15;6.20;;;;;;;5.25;100.00;102514.94;5064110;28;20037;-84
2022/01/14 05:03:01;;;;;;;13.88;3.67;;;;;;;5.24;100.00;102509.72;5078840;28;20056;-86
2022/01/14 05:05:30;;;;;;;12.60;3.30;;;;;;;5.21;100.00;102512.56;5080926;28;20032;-86
2022/01/14 05:07:56;;;;;;;15.10;3.13;;;;;;;5.18;100.00;102523.31;5054196;28;20041;-85
2022/01/14 05:12:50;;;;;;;14.10;3.55;;;;;;;5.26;100.00;102527.25;5078069;28;19920;-86
2022/01/14 05:15:16;;;;;;;26.47;4.97;;;;;;;5.26;100.00;102521.94;5059298;28;20516;-87
2022/01/14 05:17:42;;;;;;;17.05;3.17;;;;;;;5.22;100.00;102525.72;5068465;28;20032;-86
2022/01/14 05:20:09;;;;;;;18.77;5.07;;;;;;;5.28;100.00;102524.53;5044572;28;20036;-87
2022/01/14 05:22:35;;;;;;;9.30;2.80;;;;;;;5.35;100.00;102515.28;5064674;28;20037;-87
2022/01/14 05:25:01;;;;;;;16.77;3.22;;;;;;;5.24;100.00;102502.66;5061372;28;20025;-87
2022/01/14 05:27:26;;;;;;;16.75;3.63;;;;;;;5.15;100.00;102508.47;5055145;28;20089;-87
2022/01/14 05:29:51;;;;;;;17.23;3.73;;;;;;;5.26;100.00;102500.75;5051712;28;20032;-86
2022/01/14 05:32:17;;;;;;;13.50;3.10;;;;;;;5.26;100.00;102516.66;5056037;28;20040;-86
2022/01/14 05:34:44;;;;;;;17.17;3.90;;;;;;;5.26;100.00;102499.91;5063160;28;20040;-86
2022/01/14 05:37:10;;;;;;;10.82;3.08;;;;;;;5.22;100.00;102506.31;5059360;28;20029;-87
2022/01/14 05:39:36;;;;;;;18.63;3.30;;;;;;;5.23;100.00;102500.09;5045345;28;20033;-87
2022/01/14 05:42:03;;;;;;;17.63;4.82;;;;;;;5.15;100.00;102497.88;5062599;28;20119;-87
2022/01/14 05:44:30;;;;;;;19.73;5.53;;;;;;;5.18;100.00;102492.41;5061575;28;20028;-86
2022/01/14 05:46:59;;;;;;;18.98;3.35;;;;;;;5.18;100.00;102496.84;5057529;28;20032;-86
2022/01/14 05:49:25;;;;;;;17.83;3.25;;;;;;;5.21;100.00;102500.16;5055315;28;20127;-86
2022/01/14 05:51:51;;;;;;;20.55;3.65;;;;;;;5.18;100.00;102497.69;5058632;28;20095;-86
2022/01/14 05:54:18;;;;;;;19.48;4.32;;;;;;;5.15;100.00;102475.81;5037882;28;20482;-87
2022/01/14 05:56:43;;;;;;;13.57;3.15;;;;;;;5.23;100.00;102487.69;5054715;28;20024;-86
2022/01/14 05:59:10;;;;;;;13.80;3.28;;;;;;;5.17;100.00;102485.38;5064449;28;20086;-84
2022/01/14 06:01:36;;;;;;;11.23;3.53;;;;;;;5.13;100.00;102488.28;5054902;28;20098;-87
2022/01/14 06:04:03;;;;;;;21.50;4.55;;;;;;;5.22;100.00;102493.06;5065811;28;20473;-86
2022/01/14 06:06:29;;;;;;;16.80;3.55;;;;;;;5.20;100.00;102494.97;5064934;28;20880;-84
2022/01/14 06:08:54;;;;;;;21.20;3.05;;;;;;;5.24;100.00;102502.66;5066933;28;20032;-85
2022/01/14 06:11:20;;;;;;;17.63;4.40;;;;;;;5.20;100.00;102494.97;5067116;28;20469;-86
2022/01/14 06:13:46;;;;;;;14.98;3.72;;;;;;;5.19;100.00;102493.25;5064089;28;20033;-86
2022/01/14 06:16:12;;;;;;;10.80;2.85;;;;;;;5.20;100.00;102502.91;5046539;28;20104;-86
2022/01/14 06:18:37;;;;;;;13.30;3.67;;;;;;;5.19;100.00;102511.78;5060831;28;20079;-87
2022/01/14 06:21:04;;;;;;;9.40;3.20;;;;;;;5.18;100.00;102505.63;5045530;28;20107;-86
2022/01/14 06:23:30;;;;;;;16.52;3.40;;;;;;;5.28;100.00;102513.94;5065204;28;20060;-86
2022/01/14 06:25:55;;;;;;;22.73;4.65;;;;;;;5.27;100.00;102507.78;5058863;28;20067;-86
2022/01/14 06:28:21;;;;;;;21.60;3.75;;;;;;;5.30;100.00;102501.47;5055368;28;20499;-87
2022/01/14 06:30:46;;;;;;;13.27;3.63;;;;;;;5.33;100.00;102506.56;5055365;28;20210;-87
2022/01/14 06:33:11;;;;;;;19.90;3.50;;;;;;;5.23;100.00;102508.88;5076352;28;20029;-87
2022/01/14 06:35:37;;;;;;;17.23;3.63;;;;;;;5.31;100.00;102529.63;5054168;28;20060;-87
2022/01/14 06:38:03;;;;;;;16.33;4.18;;;;;;;5.29;100.00;102523.56;5040261;28;20048;-86
2022/01/14 06:40:29;;;;;;;15.10;4.32;;;;;;;5.34;100.00;102525.97;5051173;28;20029;-83
2022/01/14 06:42:55;;;;;;;;;;;;;;;5.35;100.00;102533.84;5063984;28;20127;-86
2022/01/14 06:45:21;;;;;;;24.52;4.90;;;;;;;5.30;100.00;102533.25;5078614;28;20367;-86
2022/01/14 06:47:46;;;;;;;21.98;4.78;;;;;;;5.29;100.00;102535.03;5056909;28;20055;-87
2022/01/14 06:50:12;;;;;;;24.15;5.28;;;;;;;5.27;100.00;102528.13;5046854;28;20405;-86
2022/01/14 06:52:37;;;;;;;17.98;5.03;;;;;;;5.23;100.00;102523.94;5072058;28;20082;-87
2022/01/14 06:55:04;;;;;;;25.97;5.50;;;;;;;5.23;100.00;102526.56;5047301;28;20029;-87
2022/01/14 06:57:29;;;;;;;27.65;5.47;;;;;;;5.31;100.00;102532.28;5043683;28;20076;-86
2022/01/14 06:59:55;;;;;;;17.83;3.90;;;;;;;5.22;100.00;102514.25;5069142;28;20060;-87
2022/01/14 07:02:20;;;;;;;25.77;3.93;;;;;;;5.23;100.00;102527.41;5066526;28;20039;-87
2022/01/14 07:04:46;;;;;;;20.87;4.77;;;;;;;5.24;100.00;102539.75;5071418;28;20035;-86
2022/01/14 07:07:11;;;;;;;27.98;4.90;;;;;;;5.33;100.00;102551.59;5062326;28;20048;-85
2022/01/14 07:09:38;;;;;;;26.43;5.77;;;;;;;5.31;100.00;102547.31;5070415;28;20033;-86
2022/01/14 07:12:04;;;;;;;22.15;5.55;;;;;;;5.22;100.00;102551.31;5054903;28;20029;-84
2022/01/14 07:14:30;;;;;;;22.02;4.80;;;;;;;5.33;100.00;102556.91;5053693;28;20053;-87
2022/01/14 07:16:56;;;;;;;25.35;5.20;;;;;;;5.29;100.00;102544.75;5059000;28;20058;-87
2022/01/14 07:19:22;;;;;;;;;;;;;;;5.30;100.00;102538.53;5063386;28;20469;-87
2022/01/14 07:21:48;;;;;;;34.15;4.93;;;;;;;5.33;100.00;102537.50;5069604;28;19913;-86
2022/01/14 07:24:14;;;;;;;53.10;6.17;;;;;;;5.31;100.00;102550.81;5046604;28;20036;-85
2022/01/14 07:26:42;;;;;;;28.85;4.68;;;;;;;5.29;100.00;102531.50;5064249;28;20048;-85
2022/01/14 07:29:08;;;;;;;25.73;4.82;;;;;;;5.32;100.00;102554.34;5059842;28;20025;-87
2022/01/14 07:31:34;;;;;;;25.73;4.40;;;;;;;5.37;100.00;102542.56;5054987;28;20032;-84
2022/01/14 07:34:00;;;;;;;26.15;4.80;;;;;;;5.41;100.00;102552.03;5068277;28;20021;-84
2022/01/14 07:36:25;;;;;;;28.20;5.50;;;;;;;5.28;100.00;102545.72;5047075;28;20389;-86
2022/01/14 07:38:51;;;;;;;19.80;4.60;;;;;;;5.28;100.00;102561.59;5061366;28;20091;-86
2022/01/14 07:41:16;;;;;;;24.40;5.43;;;;;;;5.32;100.00;102575.53;5065278;28;20028;-87
2022/01/14 07:43:47;;;;;;;33.22;6.35;;;;;;;5.26;100.00;102589.94;5055087;28;20032;-85
2022/01/14 07:46:12;;;;;;;23.08;5.88;;;;;;;5.31;100.00;102581.75;5071515;28;20036;-85
2022/01/14 07:48:38;;;;;;;26.52;4.80;;;;;;;5.24;100.00;102566.22;5069023;28;20787;-86
2022/01/14 07:51:03;;;;;;;21.07;4.33;;;;;;;5.28;100.00;102561.59;5064901;28;20132;-84
2022/01/14 07:53:28;;;;;;;27.37;4.30;;;;;;;5.32;100.00;102579.03;5053599;28;20033;-83
2022/01/14 07:55:54;;;;;;;38.00;7.37;;;;;;;5.25;100.00;102572.38;5054646;28;20051;-85
2022/01/14 07:58:20;;;;;;;34.45;6.10;;;;;;;5.23;100.00;102564.50;5079674;28;20431;-85
2022/01/14 08:00:46;;;;;;;23.52;6.15;;;;;;;5.24;100.00;102570.63;5066290;28;20053;-86
2022/01/14 08:03:12;;;;;;;23.40;4.47;;;;;;;5.24;100.00;102563.56;5045520;28;20063;-86
2022/01/14 08:05:37;;;;;;;17.60;4.68;;;;;;;5.31;100.00;102574.66;5053361;28;20024;-85
2022/01/14 08:08:04;;;;;;;24.52;4.88;;;;;;;5.29;100.00;102561.53;5062596;28;20051;-85
2022/01/14 08:10:31;;;;;;;21.52;5.70;;;;;;;5.32;100.00;102586.97;5053667;28;20036;-86
2022/01/14 08:12:56;;;;;;;24.67;6.82;;;;;;;5.29;100.00;102580.06;5062326;28;20052;-86
2022/01/14 08:15:23;;;;;;;21.47;4.90;;;;;;;5.28;100.00;102588.09;5060701;28;20025;-86
2022/01/14 08:17:48;;;;;;;22.75;4.18;;;;;;;5.32;100.00;102600.22;5049980;28;20273;-84
2022/01/14 08:20:14;;;;;;;26.08;5.28;;;;;;;5.36;100.00;102591.19;5046297;28;20535;-86
2022/01/14 08:22:39;;;;;;;23.93;4.27;;;;;;;5.31;100.00;102595.84;5055852;28;20050;-86
2022/01/14 08:25:05;;;;;;;19.73;4.43;;;;;;;5.38;100.00;102605.16;5061451;28;20029;-87
2022/01/14 08:27:30;;;;;;;34.85;7.28;;;;;;;5.38;100.00;102599.88;5060702;28;20046;-86
2022/01/14 08:29:56;;;;;;;27.30;4.50;;;;;;;5.29;100.00;102590.66;5059411;28;20037;-86
2022/01/14 08:32:22;;;;;;;23.40;3.55;;;;;;;5.39;100.00;102606.91;5044690;28;20166;-87
2022/01/14 08:34:48;;;;;;;26.95;6.88;;;;;;;5.43;100.00;102602.28;5065115;28;20063;-87
2022/01/14 08:37:13;;;;;;;;;;;;;;;5.45;100.00;102601.25;5062549;28;20032;-85
2022/01/14 08:39:39;;;;;;;26.23;5.22;;;;;;;5.36;100.00;102592.94;5068728;28;19912;-85
2022/01/14 08:42:09;;;;;;;22.95;5.13;;;;;;;5.39;100.00;102611.34;5045015;28;20119;-86
2022/01/14 08:44:36;;;;;;;19.27;4.93;;;;;;;5.40;100.00;102616.53;5060897;28;20043;-85
2022/01/14 08:47:04;;;;;;;30.85;5.30;;;;;;;5.49;100.00;102624.00;5052780;28;20392;-86
2022/01/14 08:49:30;;;;;;;26.50;4.38;;;;;;;5.41;100.00;102612.97;5077866;28;20093;-86
2022/01/14 08:51:55;;;;;;;19.67;4.50;;;;;;;5.40;100.00;102611.25;5052620;28;20032;-86
2022/01/14 08:54:21;;;;;;;32.63;6.00;;;;;;;5.46;100.00;102618.88;5060229;28;20827;-86
2022/01/14 08:56:46;;;;;;;20.07;3.63;;;;;;;5.57;100.00;102628.00;5051700;28;20271;-86
2022/01/14 08:59:15;;;;;;;24.27;4.33;;;;;;;5.56;100.00;102635.13;5062611;28;20059;-86
2022/01/14 09:01:42;;;;;;;20.63;4.70;;;;;;;5.58;100.00;102640.34;5061031;28;20025;-86
2022/01/14 09:04:07;;;;;;;17.52;4.15;;;;;;;5.69;100.00;102653.88;5058416;28;20040;-86
2022/01/14 09:06:33;;;;;;;25.13;4.55;;;;;;;5.69;100.00;102646.75;5052740;28;20826;-86
2022/01/14 09:08:58;;;;;;;20.13;5.13;;;;;;;5.70;100.00;102650.25;5075172;28;20090;-84
2022/01/14 09:11:24;;;;;;;20.15;4.60;;;;;;;5.67;100.00;102634.53;5056978;28;20037;-85
2022/01/14 09:13:49;;;;;;;24.50;4.07;;;;;;;5.78;100.00;102640.06;5042514;28;20021;-86
2022/01/14 09:16:17;;;;;;;16.80;4.40;;;;;;;5.78;100.00;102629.47;5069165;28;20504;-86
2022/01/14 09:18:42;;;;;;;19.83;4.60;;;;;;;5.87;100.00;102644.88;5058424;28;20017;-87
2022/01/14 09:21:08;;;;;;;19.35;5.00;;;;;;;5.85;100.00;102619.41;5077654;28;20090;-86
2022/01/14 09:23:34;;;;;;;12.90;3.53;;;;;;;5.87;100.00;102628.97;5064928;28;20040;-84
2022/01/14 09:26:00;;;;;;;21.23;3.55;;;;;;;5.96;100.00;102637.41;5060536;28;20081;-86
2022/01/14 09:28:28;;;;;;;15.23;3.58;;;;;;;5.94;100.00;102645.41;5063708;28;20127;-84
2022/01/14 09:30:54;;;;;;;17.33;3.75;;;;;;;5.87;100.00;102641.38;5053836;28;20032;-84
2022/01/14 09:33:20;;;;;;;18.13;4.22;;;;;;;5.98;100.00;102664.69;5047461;28;20482;-86
2022/01/14 09:35:46;;;;;;;16.08;3.15;;;;;;;5.86;100.00;102637.88;5047928;28;20111;-87
2022/01/14 09:38:12;;;;;;;28.92;4.05;;;;;;;5.96;100.00;102653.31;5068534;28;20037;-85
2022/01/14 09:40:42;;;;;;;21.55;3.67;;;;;;;5.93;100.00;102649.84;5066533;28;20029;-86
2022/01/14 09:43:08;;;;;;;23.27;4.65;;;;;;;5.98;100.00;102662.88;5062659;28;20033;-87
2022/01/14 09:45:34;;;;;;;;;;;;;;;5.99;100.00;102653.13;5065023;28;20036;-85
2022/01/14 09:48:00;;;;;;;27.45;3.22;;;;;;;5.95;100.00;102655.09;5056250;28;19912;-86
2022/01/14 09:50:26;;;;;;;16.88;2.90;;;;;;;6.05;100.00;102663.41;5072347;28;20047;-87
2022/01/14 09:52:52;;;;;;;28.30;4.50;;;;;;;6.05;100.00;102653.63;5053993;28;20028;-88
2022/01/14 09:55:18;;;;;;;;;;;;;;;6.16;100.00;102676.91;5057449;28;20032;-88
2022/01/14 09:57:44;;;;;;;17.60;2.97;;;;;;;6.11;100.00;102663.03;5062023;28;19917;-84
2022/01/14 10:00:10;;;;;;;17.70;2.78;;;;;;;6.13;100.00;102662.03;5057151;28;20031;-87
2022/01/14 10:02:38;;;;;;;23.70;3.58;;;;;;;6.16;100.00;102676.03;5073258;28;20051;-86
2022/01/14 10:05:05;;;;;;;20.08;4.30;;;;;;;6.21;100.00;102684.59;5077635;28;20029;-85
2022/01/14 10:07:32;;;;;;;25.92;3.90;;;;;;;6.25;100.00;102691.44;5043254;28;20119;-86
2022/01/14 10:10:00;;;;;;;17.98;3.40;;;;;;;6.23;100.00;102690.69;5077781;28;20033;-86
2022/01/14 10:12:30;;;;;;;25.83;4.70;;;;;;;6.30;100.00;102689.41;5056038;28;20029;-86
2022/01/14 10:15:00;;;;;;;23.35;5.07;;;;;;;6.33;100.00;102698.03;5071513;28;20029;-86
2022/01/14 10:17:35;;;;;;;21.75;4.45;;;;;;;6.24;100.00;102685.28;5072429;28;20651;-86
2022/01/14 10:20:02;;;;;;;17.27;4.18;;;;;;;6.39;100.00;102690.66;5060271;28;20037;-86
2022/01/14 10:22:29;;;;;;;19.98;4.28;;;;;;;6.36;100.00;102688.19;5055250;28;20032;-86
2022/01/14 10:25:02;;;;;;;25.73;5.28;;;;;;;6.36;100.00;102690.84;5055166;28;20040;-86
2022/01/14 10:27:36;;;;;;;19.00;3.65;;;;;;;6.32;100.00;102688.38;5065352;28;20041;-88
2022/01/14 10:30:24;;;;;;;29.60;5.18;;;;;;;6.42;100.00;102693.16;5072193;28;20035;-88
2022/01/14 10:33:05;;;;;;;24.10;5.32;;;;;;;6.29;100.00;102680.56;5073777;28;20048;-85
2022/01/14 10:35:41;;;;;;;12.82;3.22;;;;;;;6.33;100.00;102681.25;5062012;28;20036;-88
2022/01/14 10:38:10;;;;;;;12.55;3.08;;;;;;;6.36;100.00;102681.06;5063940;28;20040;-86
2022/01/14 10:40:41;;;;;;;18.55;4.10;;;;;;;6.39;100.00;102683.56;5054025;28;20033;-88
2022/01/14 10:43:12;;;;;;;9.50;2.80;;;;;;;6.30;100.00;102674.31;5069709;28;20053;-89
2022/01/14 10:45:38;;;;;;;12.02;3.03;;;;;;;6.40;100.00;102676.44;5068029;28;20037;-88
2022/01/14 10:48:08;;;;;;;14.43;3.10;;;;;;;6.46;100.00;102671.66;5048481;28;20040;-90
2022/01/14 10:50:43;;;;;;;9.88;2.92;;;;;;;6.64;100.00;102688.28;5069500;28;20036;-91
2022/01/14 10:53:16;;;;;;;7.45;3.22;;;;;;;6.46;100.00;102662.81;5060884;28;20837;-89
2022/01/14 10:55:53;;;;;;;14.93;2.00;;;;;;;6.60;100.00;102681.44;5062692;28;20115;-88
2022/01/14 10:58:33;;;;;;;20.80;4.45;;;;;;;6.67;100.00;102689.91;5054238;28;20032;-87
2022/01/14 11:01:03;;;;;;;18.50;3.03;;;;;;;6.64;100.00;102685.63;5050818;28;20108;-87
2022/01/14 11:03:37;;;;;;;11.60;2.22;;;;;;;6.65;100.00;102682.06;5057296;28;20037;-86
2022/01/14 11:06:18;;;;;;;10.45;3.00;;;;;;;6.68;100.00;102683.66;5070803;28;20060;-87
2022/01/14 11:08:45;;;;;;;10.60;2.08;;;;;;;6.57;100.00;102659.56;5066832;28;20520;-86
2022/01/14 11:11:11;;;;;;;11.15;2.38;;;;;;;6.59;100.00;102662.97;5062918;28;20036;-88
2022/01/14 11:13:36;;;;;;;;;;;;;;;6.69;100.00;102667.63;5054918;28;20105;-84
2022/01/14 11:16:02;;;;;;;;;;;;;;;6.79;100.00;102669.75;5055492;28;19912;-87
2022/01/14 11:18:28;;;;;;;8.43;2.10;;;;;;;6.65;100.00;102641.34;5079698;28;19915;-86
2022/01/14 11:23:37;;;;;;;12.38;2.50;;;;;;;6.79;100.00;102645.84;5078310;28;20275;-86
2022/01/14 11:26:06;;;;;;;5.63;2.00;;;;;;;6.80;100.00;102650.25;5058704;28;20020;-88
2022/01/14 11:28:34;;;;;;;15.35;3.50;;;;;;;6.73;100.00;102639.97;5056255;28;20081;-85
2022/01/14 11:31:00;;;;;;;11.88;2.00;;;;;;;6.74;100.00;102631.06;5058638;28;20501;-90
2022/01/14 11:33:41;;;;;;;9.35;2.22;;;;;;;6.65;100.00;102615.69;5053969;28;20033;-86
2022/01/14 11:36:07;;;;;;;9.50;2.17;;;;;;;6.63;100.00;102593.69;5060164;28;20060;-84
2022/01/14 11:38:44;;;;;;;10.68;2.08;;;;;;;6.68;100.00;102612.84;5054599;28;20060;-87
2022/01/14 11:41:13;;;;;;;8.00;2.95;;;;;;;6.74;100.00;102609.84;5071761;28;20111;-86
2022/01/14 11:43:41;;;;;;;9.40;2.05;;;;;;;6.68;100.00;102604.03;5053047;28;20805;-85
2022/01/14 11:46:10;;;;;;;7.80;1.65;;;;;;;6.70;100.00;102608.31;5061273;28;20020;-87